createdAt,value
2019-01-30T00:00:32.191Z,454
2019-01-30T00:01:39.390Z,453
2019-01-30T00:02:46.319Z,453
2019-01-30T00:03:53.519Z,453
2019-01-30T00:05:00.435Z,455
2019-01-30T00:06:07.361Z,454
2019-01-30T00:07:14.578Z,454
2019-01-30T00:08:21.771Z,453
2019-01-30T00:09:28.983Z,454
2019-01-30T00:10:36.194Z,453
2019-01-30T00:11:43.390Z,454
2019-01-30T00:12:50.589Z,454
2019-01-30T00:13:57.533Z,454
2019-01-30T00:15:04.738Z,454
2019-01-30T00:16:11.681Z,454
2019-01-30T00:17:18.880Z,453
2019-01-30T00:18:25.804Z,455
2019-01-30T00:19:32.454Z,455
2019-01-30T00:20:39.663Z,455
2019-01-30T00:21:46.861Z,454
2019-01-30T00:22:54.464Z,454
2019-01-30T00:24:02.071Z,454
2019-01-30T00:25:09.338Z,453
2019-01-30T00:26:16.542Z,454
2019-01-30T00:27:23.488Z,455
2019-01-30T00:28:30.144Z,454
2019-01-30T00:29:37.073Z,456
2019-01-30T00:30:44.278Z,456
2019-01-30T00:31:51.205Z,455
2019-01-30T00:32:58.403Z,454
2019-01-30T00:34:05.348Z,454
2019-01-30T00:35:12.555Z,454
2019-01-30T00:36:19.774Z,455
2019-01-30T00:37:26.976Z,455
2019-01-30T00:38:34.192Z,454
2019-01-30T00:39:41.394Z,455
2019-01-30T00:40:48.598Z,455
2019-01-30T00:41:55.806Z,455
2019-01-30T00:43:03.004Z,455
2019-01-30T00:44:10.198Z,455
2019-01-30T00:45:17.426Z,455
2019-01-30T00:46:24.341Z,455
2019-01-30T00:47:31.293Z,456
2019-01-30T00:48:38.214Z,454
2019-01-30T00:49:45.424Z,455
2019-01-30T00:50:52.366Z,456
2019-01-30T00:51:59.562Z,455
2019-01-30T00:53:06.483Z,456
2019-01-30T00:54:13.685Z,454
2019-01-30T00:55:20.882Z,455
2019-01-30T00:56:27.805Z,455
2019-01-30T00:57:34.726Z,456
2019-01-30T00:58:41.928Z,455
2019-01-30T00:59:48.846Z,455
2019-01-30T01:00:56.042Z,455
2019-01-30T01:02:05.061Z,455
2019-01-30T01:03:11.974Z,454
2019-01-30T01:04:19.168Z,454
2019-01-30T01:05:26.463Z,454
2019-01-30T01:06:33.658Z,454
2019-01-30T01:07:40.855Z,455
2019-01-30T01:08:48.056Z,455
2019-01-30T01:09:55.253Z,454
2019-01-30T01:11:02.182Z,454
2019-01-30T01:12:09.390Z,454
2019-01-30T01:13:16.313Z,455
2019-01-30T01:14:23.544Z,455
2019-01-30T01:15:30.743Z,456
2019-01-30T01:16:37.942Z,454
2019-01-30T01:17:45.147Z,455
2019-01-30T01:18:52.393Z,455
2019-01-30T01:19:59.660Z,455
2019-01-30T01:21:06.936Z,456
2019-01-30T01:22:14.134Z,457
2019-01-30T01:23:21.082Z,457
2019-01-30T01:24:28.277Z,456
2019-01-30T01:25:35.473Z,455
2019-01-30T01:26:42.390Z,456
2019-01-30T01:27:49.581Z,457
2019-01-30T01:28:56.780Z,454
2019-01-30T01:30:03.700Z,454
2019-01-30T01:31:10.618Z,455
2019-01-30T01:32:17.816Z,455
2019-01-30T01:33:24.738Z,454
2019-01-30T01:34:31.656Z,455
2019-01-30T01:35:38.859Z,455
2019-01-30T01:36:46.050Z,455
2019-01-30T01:37:53.247Z,454
2019-01-30T01:39:00.448Z,456
2019-01-30T01:40:07.687Z,455
2019-01-30T01:41:14.613Z,455
2019-01-30T01:42:21.812Z,456
2019-01-30T01:43:29.028Z,455
2019-01-30T01:44:36.226Z,455
2019-01-30T01:45:43.142Z,454
2019-01-30T01:46:50.366Z,455
2019-01-30T01:47:57.577Z,455
2019-01-30T01:49:04.787Z,455
2019-01-30T01:50:12.047Z,455
2019-01-30T01:51:18.963Z,455
2019-01-30T01:52:26.164Z,454
2019-01-30T01:53:33.359Z,454
2019-01-30T01:54:40.577Z,453
2019-01-30T01:55:47.782Z,452
2019-01-30T01:56:54.994Z,453
2019-01-30T01:58:01.914Z,453
2019-01-30T01:59:08.842Z,453
2019-01-30T02:00:16.051Z,453
2019-01-30T02:01:23.318Z,453
2019-01-30T02:02:30.518Z,453
2019-01-30T02:03:37.198Z,452
2019-01-30T02:04:44.452Z,453
2019-01-30T02:05:51.618Z,454
2019-01-30T02:06:58.539Z,452
2019-01-30T02:08:05.957Z,453
2019-01-30T02:09:12.890Z,453
2019-01-30T02:10:19.813Z,454
2019-01-30T02:11:26.728Z,454
2019-01-30T02:12:33.925Z,454
2019-01-30T02:13:40.849Z,453
2019-01-30T02:14:47.788Z,453
2019-01-30T02:15:55.197Z,453
2019-01-30T02:17:02.121Z,452
2019-01-30T02:18:09.396Z,452
2019-01-30T02:19:16.337Z,453
2019-01-30T02:20:23.533Z,452
2019-01-30T02:21:30.732Z,453
2019-01-30T02:22:37.939Z,453
2019-01-30T02:23:45.136Z,453
2019-01-30T02:24:52.057Z,452
2019-01-30T02:25:59.258Z,452
2019-01-30T02:27:06.460Z,451
2019-01-30T02:28:13.106Z,452
2019-01-30T02:29:20.028Z,451
2019-01-30T02:30:26.970Z,452
2019-01-30T02:31:34.166Z,452
2019-01-30T02:32:41.100Z,452
2019-01-30T02:33:48.293Z,452
2019-01-30T02:34:55.498Z,452
2019-01-30T02:36:02.705Z,453
2019-01-30T02:37:09.927Z,452
2019-01-30T02:38:17.121Z,452
2019-01-30T02:39:24.061Z,452
2019-01-30T02:40:31.258Z,452
2019-01-30T02:41:38.194Z,452
2019-01-30T02:42:45.392Z,452
2019-01-30T02:43:52.626Z,451
2019-01-30T02:44:59.831Z,451
2019-01-30T02:46:07.266Z,452
2019-01-30T02:47:14.466Z,450
2019-01-30T02:48:21.681Z,451
2019-01-30T02:49:28.590Z,451
2019-01-30T02:50:36.222Z,451
2019-01-30T02:51:43.432Z,451
2019-01-30T02:52:50.630Z,451
2019-01-30T02:53:57.829Z,450
2019-01-30T02:55:05.039Z,451
2019-01-30T02:56:11.958Z,450
2019-01-30T02:57:19.172Z,452
2019-01-30T02:58:26.372Z,451
2019-01-30T02:59:33.576Z,451
2019-01-30T03:00:40.776Z,451
2019-01-30T03:01:47.980Z,452
2019-01-30T03:02:54.917Z,452
2019-01-30T03:04:02.113Z,451
2019-01-30T03:05:09.313Z,452
2019-01-30T03:06:16.226Z,451
2019-01-30T03:07:23.439Z,451
2019-01-30T03:08:30.635Z,452
2019-01-30T03:09:37.566Z,451
2019-01-30T03:10:44.501Z,451
2019-01-30T03:11:51.714Z,452
2019-01-30T03:12:58.917Z,452
2019-01-30T03:14:06.124Z,452
2019-01-30T03:15:13.318Z,452
2019-01-30T03:16:20.519Z,451
2019-01-30T03:17:27.176Z,451
2019-01-30T03:18:34.380Z,452
2019-01-30T03:19:41.321Z,451
2019-01-30T03:20:48.529Z,452
2019-01-30T03:21:55.456Z,452
2019-01-30T03:23:02.103Z,451
2019-01-30T03:24:09.035Z,452
2019-01-30T03:25:16.234Z,452
2019-01-30T03:26:23.166Z,451
2019-01-30T03:27:30.372Z,452
2019-01-30T03:28:37.291Z,452
2019-01-30T03:29:44.484Z,453
2019-01-30T03:30:52.018Z,451
2019-01-30T03:31:58.949Z,452
2019-01-30T03:33:06.163Z,451
2019-01-30T03:34:13.358Z,451
2019-01-30T03:35:20.570Z,452
2019-01-30T03:36:27.487Z,451
2019-01-30T03:37:34.687Z,452
2019-01-30T03:38:41.889Z,451
2019-01-30T03:39:49.092Z,451
2019-01-30T03:40:56.127Z,451
2019-01-30T03:42:03.044Z,450
2019-01-30T03:43:10.360Z,450
2019-01-30T03:44:17.569Z,451
2019-01-30T03:45:24.872Z,451
2019-01-30T03:46:32.223Z,451
2019-01-30T03:47:39.453Z,452
2019-01-30T03:48:46.637Z,451
2019-01-30T03:49:53.865Z,451
2019-01-30T03:51:01.075Z,452
2019-01-30T03:52:08.271Z,451
2019-01-30T03:53:15.470Z,452
2019-01-30T03:54:22.671Z,451
2019-01-30T03:55:29.882Z,452
2019-01-30T03:56:36.804Z,452
2019-01-30T03:57:44.141Z,452
2019-01-30T03:58:51.345Z,452
2019-01-30T03:59:58.365Z,450
2019-01-30T04:01:05.323Z,451
2019-01-30T04:02:12.531Z,452
2019-01-30T04:03:19.449Z,451
2019-01-30T04:04:26.664Z,451
2019-01-30T04:05:33.854Z,452
2019-01-30T04:06:40.855Z,451
2019-01-30T04:07:48.073Z,451
2019-01-30T04:08:55.266Z,450
2019-01-30T04:10:02.456Z,451
2019-01-30T04:11:09.669Z,451
2019-01-30T04:12:16.867Z,450
2019-01-30T04:13:24.096Z,449
2019-01-30T04:14:31.282Z,450
2019-01-30T04:15:38.526Z,450
2019-01-30T04:16:45.445Z,450
2019-01-30T04:17:52.365Z,450
2019-01-30T04:18:59.553Z,450
2019-01-30T04:20:06.756Z,451
2019-01-30T04:21:13.964Z,451
2019-01-30T04:22:20.911Z,450
2019-01-30T04:23:27.827Z,450
2019-01-30T04:24:35.042Z,450
2019-01-30T04:25:42.028Z,450
2019-01-30T04:26:49.249Z,451
2019-01-30T04:27:56.450Z,449
2019-01-30T04:29:03.371Z,450
2019-01-30T04:30:10.570Z,450
2019-01-30T04:31:17.491Z,450
2019-01-30T04:32:24.134Z,449
2019-01-30T04:33:31.347Z,450
2019-01-30T04:34:38.551Z,450
2019-01-30T04:35:45.480Z,449
2019-01-30T04:36:52.688Z,450
2019-01-30T04:37:59.879Z,450
2019-01-30T04:39:06.836Z,450
2019-01-30T04:40:14.032Z,450
2019-01-30T04:41:21.232Z,449
2019-01-30T04:42:28.462Z,449
2019-01-30T04:43:35.666Z,448
2019-01-30T04:44:42.581Z,448
2019-01-30T04:45:49.780Z,448
2019-01-30T04:46:56.971Z,449
2019-01-30T04:48:04.170Z,448
2019-01-30T04:49:11.365Z,448
2019-01-30T04:50:18.287Z,448
2019-01-30T04:51:25.518Z,448
2019-01-30T04:52:32.718Z,447
2019-01-30T04:53:39.939Z,448
2019-01-30T04:54:47.141Z,448
2019-01-30T04:55:54.066Z,447
2019-01-30T04:57:00.985Z,447
2019-01-30T04:58:08.187Z,447
2019-01-30T04:59:15.128Z,446
2019-01-30T05:00:22.364Z,447
2019-01-30T05:01:29.579Z,447
2019-01-30T05:02:36.787Z,447
2019-01-30T05:03:43.998Z,446
2019-01-30T05:04:51.196Z,446
2019-01-30T05:05:58.396Z,446
2019-01-30T05:07:05.609Z,445
2019-01-30T05:08:12.823Z,446
2019-01-30T05:09:20.050Z,446
2019-01-30T05:10:26.974Z,445
2019-01-30T05:11:33.896Z,445
2019-01-30T05:12:41.088Z,445
2019-01-30T05:13:48.274Z,446
2019-01-30T05:14:55.480Z,445
2019-01-30T05:16:02.403Z,445
2019-01-30T05:17:09.353Z,444
2019-01-30T05:18:16.568Z,445
2019-01-30T05:19:22.955Z,445
2019-01-30T05:20:30.167Z,444
2019-01-30T05:21:37.377Z,444
2019-01-30T05:22:44.573Z,444
2019-01-30T05:23:51.773Z,444
2019-01-30T05:24:58.996Z,444
2019-01-30T05:26:06.175Z,443
2019-01-30T05:27:13.372Z,443
2019-01-30T05:28:20.571Z,442
2019-01-30T05:29:27.782Z,443
2019-01-30T05:30:34.975Z,444
2019-01-30T05:31:42.390Z,442
2019-01-30T05:32:49.640Z,444
2019-01-30T05:33:57.055Z,443
2019-01-30T05:35:04.260Z,442
2019-01-30T05:36:11.476Z,442
2019-01-30T05:37:18.674Z,442
2019-01-30T05:38:25.870Z,441
2019-01-30T05:39:33.056Z,442
2019-01-30T05:40:39.966Z,442
2019-01-30T05:41:46.882Z,441
2019-01-30T05:42:53.811Z,441
2019-01-30T05:44:01.011Z,441
2019-01-30T05:45:08.263Z,442
2019-01-30T05:46:15.450Z,441
2019-01-30T05:47:22.369Z,441
2019-01-30T05:48:29.571Z,440
2019-01-30T05:49:36.788Z,441
2019-01-30T05:50:43.727Z,441
2019-01-30T05:51:50.378Z,440
2019-01-30T05:52:57.301Z,440
2019-01-30T05:54:04.232Z,439
2019-01-30T05:55:11.165Z,439
2019-01-30T05:56:20.921Z,440
2019-01-30T05:57:28.114Z,439
2019-01-30T05:58:35.347Z,439
2019-01-30T05:59:42.541Z,440
2019-01-30T06:00:49.771Z,439
2019-01-30T06:01:56.970Z,439
2019-01-30T06:03:04.197Z,439
2019-01-30T06:04:11.401Z,439
2019-01-30T06:05:18.607Z,438
2019-01-30T06:06:25.538Z,439
2019-01-30T06:07:32.759Z,438
2019-01-30T06:08:39.689Z,437
2019-01-30T06:09:46.914Z,438
2019-01-30T06:10:54.112Z,438
2019-01-30T06:12:01.052Z,438
2019-01-30T06:13:07.975Z,438
2019-01-30T06:14:14.622Z,439
2019-01-30T06:15:21.574Z,438
2019-01-30T06:16:28.769Z,438
2019-01-30T06:17:35.692Z,438
2019-01-30T06:18:43.027Z,439
2019-01-30T06:19:49.948Z,437
2019-01-30T06:20:56.875Z,438
2019-01-30T06:22:04.073Z,437
2019-01-30T06:23:11.020Z,437
2019-01-30T06:24:18.239Z,437
2019-01-30T06:25:25.194Z,437
2019-01-30T06:26:32.395Z,436
2019-01-30T06:27:39.613Z,438
2019-01-30T06:28:46.819Z,437
2019-01-30T06:29:53.999Z,437
2019-01-30T06:31:01.199Z,437
2019-01-30T06:32:08.431Z,437
2019-01-30T06:33:15.631Z,437
2019-01-30T06:34:22.836Z,437
2019-01-30T06:35:30.050Z,436
2019-01-30T06:36:37.248Z,436
2019-01-30T06:37:44.176Z,435
2019-01-30T06:38:51.389Z,437
2019-01-30T06:39:58.590Z,436
2019-01-30T06:41:05.585Z,437
2019-01-30T06:42:12.780Z,437
2019-01-30T06:43:19.706Z,436
2019-01-30T06:44:26.906Z,435
2019-01-30T06:45:33.573Z,435
2019-01-30T06:46:40.500Z,435
2019-01-30T06:47:47.711Z,436
2019-01-30T06:48:57.248Z,436
2019-01-30T06:50:04.464Z,436
2019-01-30T06:51:11.662Z,436
2019-01-30T06:52:18.864Z,435
2019-01-30T06:53:26.060Z,437
2019-01-30T06:54:33.254Z,436
2019-01-30T06:55:40.187Z,436
2019-01-30T06:56:47.387Z,436
2019-01-30T06:57:54.574Z,436
2019-01-30T06:59:01.798Z,436
2019-01-30T07:00:08.992Z,436
2019-01-30T07:01:16.192Z,436
2019-01-30T07:02:33.185Z,436
2019-01-30T07:03:40.387Z,436
2019-01-30T07:04:47.052Z,436
2019-01-30T07:05:54.251Z,435
2019-01-30T07:07:01.450Z,435
2019-01-30T07:08:08.655Z,436
2019-01-30T07:09:15.859Z,436
2019-01-30T07:10:23.061Z,436
2019-01-30T07:11:30.257Z,436
2019-01-30T07:12:37.451Z,435
2019-01-30T07:13:44.651Z,435
2019-01-30T07:14:51.853Z,436
2019-01-30T07:15:59.057Z,436
2019-01-30T07:17:06.260Z,436
2019-01-30T07:18:13.467Z,435
2019-01-30T07:19:20.669Z,435
2019-01-30T07:20:27.865Z,436
2019-01-30T07:21:34.797Z,435
2019-01-30T07:22:41.743Z,435
2019-01-30T07:23:48.954Z,435
2019-01-30T07:24:56.160Z,435
2019-01-30T07:26:03.102Z,436
2019-01-30T07:27:10.303Z,435
2019-01-30T07:28:17.504Z,436
2019-01-30T07:29:24.430Z,435
2019-01-30T07:30:31.625Z,435
2019-01-30T07:31:38.816Z,434
2019-01-30T07:32:46.013Z,434
2019-01-30T07:33:52.937Z,434
2019-01-30T07:35:00.290Z,434
2019-01-30T07:36:07.483Z,434
2019-01-30T07:37:14.694Z,434
2019-01-30T07:38:21.898Z,433
2019-01-30T07:39:29.091Z,433
2019-01-30T07:40:36.303Z,433
2019-01-30T07:41:43.497Z,432
2019-01-30T07:42:50.703Z,433
2019-01-30T07:43:57.901Z,433
2019-01-30T07:45:05.110Z,433
2019-01-30T07:46:12.329Z,432
2019-01-30T07:47:19.261Z,432
2019-01-30T07:48:29.807Z,431
2019-01-30T07:49:37.076Z,432
2019-01-30T07:50:44.004Z,432
2019-01-30T07:51:51.204Z,432
2019-01-30T07:53:00.007Z,432
2019-01-30T07:54:07.199Z,431
2019-01-30T07:55:14.395Z,430
2019-01-30T07:56:21.589Z,430
2019-01-30T07:57:27.961Z,430
2019-01-30T07:58:35.172Z,431
2019-01-30T07:59:42.100Z,431
2019-01-30T08:00:49.289Z,432
2019-01-30T08:01:56.489Z,430
2019-01-30T08:03:03.693Z,430
2019-01-30T08:04:10.890Z,430
2019-01-30T08:05:18.195Z,431
2019-01-30T08:06:25.397Z,430
2019-01-30T08:07:32.602Z,430
2019-01-30T08:08:39.798Z,430
2019-01-30T08:09:46.994Z,430
2019-01-30T08:10:54.186Z,429
2019-01-30T08:12:01.383Z,430
2019-01-30T08:13:08.597Z,429
2019-01-30T08:14:15.802Z,429
2019-01-30T08:15:23.029Z,429
2019-01-30T08:16:30.221Z,429
2019-01-30T08:17:37.449Z,428
2019-01-30T08:18:44.649Z,429
2019-01-30T08:19:53.063Z,429
2019-01-30T08:21:00.281Z,427
2019-01-30T08:22:07.488Z,427
2019-01-30T08:23:15.058Z,427
2019-01-30T08:24:22.769Z,428
2019-01-30T08:25:30.795Z,428
2019-01-30T08:26:38.416Z,427
2019-01-30T08:27:45.959Z,426
2019-01-30T08:28:53.784Z,427
2019-01-30T08:30:01.683Z,426
2019-01-30T08:31:09.840Z,427
2019-01-30T08:32:17.434Z,426
2019-01-30T08:33:24.394Z,426
2019-01-30T08:34:31.706Z,425
2019-01-30T08:35:38.639Z,426
2019-01-30T08:36:45.638Z,426
2019-01-30T08:37:52.562Z,426
2019-01-30T08:38:59.756Z,426
2019-01-30T08:40:06.959Z,425
2019-01-30T08:41:14.153Z,426
2019-01-30T08:42:21.375Z,426
2019-01-30T08:43:28.579Z,427
2019-01-30T08:44:35.777Z,426
2019-01-30T08:45:53.597Z,425
2019-01-30T08:47:00.840Z,425
2019-01-30T08:48:07.761Z,425
2019-01-30T08:49:14.968Z,426
2019-01-30T08:50:22.158Z,425
2019-01-30T08:51:29.401Z,426
2019-01-30T08:52:36.596Z,426
2019-01-30T08:53:43.531Z,426
2019-01-30T08:54:50.746Z,427
2019-01-30T08:55:57.691Z,429
2019-01-30T08:57:04.642Z,428
2019-01-30T08:58:11.856Z,426
2019-01-30T08:59:18.804Z,427
2019-01-30T09:00:26.014Z,425
2019-01-30T09:01:33.223Z,426
2019-01-30T09:02:40.428Z,426
2019-01-30T09:03:47.629Z,426
2019-01-30T09:04:54.823Z,427
2019-01-30T09:06:01.757Z,428
2019-01-30T09:07:08.679Z,427
2019-01-30T09:08:15.884Z,427
2019-01-30T09:09:23.103Z,427
2019-01-30T09:10:30.040Z,427
2019-01-30T09:11:37.259Z,428
2019-01-30T09:12:44.458Z,428
2019-01-30T09:13:51.379Z,427
2019-01-30T09:14:58.584Z,428
2019-01-30T09:16:05.791Z,428
2019-01-30T09:17:12.997Z,428
2019-01-30T09:18:20.200Z,430
2019-01-30T09:19:27.391Z,428
2019-01-30T09:20:34.613Z,427
2019-01-30T09:21:41.542Z,429
2019-01-30T09:22:48.757Z,428
2019-01-30T09:23:55.949Z,429
2019-01-30T09:25:03.154Z,429
2019-01-30T09:26:10.357Z,427
2019-01-30T09:27:17.565Z,428
2019-01-30T09:28:24.765Z,429
2019-01-30T09:29:31.981Z,430
2019-01-30T09:30:38.914Z,430
2019-01-30T09:31:46.124Z,431
2019-01-30T09:32:56.389Z,431
2019-01-30T09:34:03.301Z,432
2019-01-30T09:35:10.261Z,430
2019-01-30T09:36:17.524Z,430
2019-01-30T09:37:27.136Z,430
2019-01-30T09:38:34.589Z,430
2019-01-30T09:39:41.773Z,429
2019-01-30T09:40:48.980Z,430
2019-01-30T09:41:56.207Z,429
2019-01-30T09:43:03.474Z,428
2019-01-30T09:44:10.703Z,427
2019-01-30T09:45:17.743Z,427
2019-01-30T09:46:24.967Z,430
2019-01-30T09:47:32.166Z,430
2019-01-30T09:48:39.410Z,433
2019-01-30T09:49:46.346Z,432
2019-01-30T09:50:53.559Z,435
2019-01-30T09:52:00.751Z,434
2019-01-30T09:53:07.997Z,434
2019-01-30T09:54:14.966Z,436
2019-01-30T09:55:22.173Z,436
2019-01-30T09:56:29.515Z,436
2019-01-30T09:57:36.751Z,436
2019-01-30T09:58:43.995Z,435
2019-01-30T09:59:51.205Z,433
2019-01-30T10:00:58.418Z,432
2019-01-30T10:02:05.628Z,430
2019-01-30T10:03:12.576Z,424
2019-01-30T10:04:20.609Z,420
2019-01-30T10:05:27.932Z,416
2019-01-30T10:06:35.190Z,412
2019-01-30T10:07:42.386Z,408
2019-01-30T10:08:49.588Z,408
2019-01-30T10:09:56.881Z,408
2019-01-30T10:11:04.088Z,408
2019-01-30T10:12:11.288Z,408
2019-01-30T10:13:18.513Z,408
2019-01-30T10:14:25.827Z,408
2019-01-30T10:15:33.014Z,409
2019-01-30T10:16:40.217Z,408
2019-01-30T10:17:47.427Z,408
2019-01-30T10:18:54.646Z,409
2019-01-30T10:20:01.857Z,409
2019-01-30T10:21:09.067Z,409
2019-01-30T10:22:16.276Z,410
2019-01-30T10:23:23.203Z,410
2019-01-30T10:24:30.406Z,410
2019-01-30T10:25:37.053Z,410
2019-01-30T10:26:43.985Z,410
2019-01-30T10:27:51.307Z,411
2019-01-30T10:28:58.532Z,411
2019-01-30T10:30:05.466Z,412
2019-01-30T10:31:12.405Z,412
2019-01-30T10:32:19.613Z,412
2019-01-30T10:33:26.814Z,411
2019-01-30T10:34:34.019Z,411
2019-01-30T10:35:41.237Z,412
2019-01-30T10:36:48.434Z,412
2019-01-30T10:37:55.637Z,412
2019-01-30T10:39:02.840Z,413
2019-01-30T10:40:10.044Z,412
2019-01-30T10:41:17.259Z,412
2019-01-30T10:42:24.462Z,413
2019-01-30T10:43:31.669Z,412
2019-01-30T10:44:39.491Z,412
2019-01-30T10:45:46.415Z,412
2019-01-30T10:46:53.350Z,413
2019-01-30T10:48:00.560Z,413
2019-01-30T10:49:07.774Z,413
2019-01-30T10:50:14.698Z,413
2019-01-30T10:51:21.905Z,413
2019-01-30T10:52:28.843Z,413
2019-01-30T10:53:36.125Z,413
2019-01-30T10:54:43.339Z,413
2019-01-30T10:55:50.264Z,412
2019-01-30T10:56:56.921Z,412
2019-01-30T10:58:04.142Z,411
2019-01-30T10:59:11.353Z,412
2019-01-30T11:00:18.585Z,412
2019-01-30T11:01:25.790Z,412
2019-01-30T11:02:32.729Z,413
2019-01-30T11:03:39.949Z,413
2019-01-30T11:04:46.897Z,413
2019-01-30T11:05:53.829Z,413
2019-01-30T11:07:01.249Z,412
2019-01-30T11:08:08.479Z,413
2019-01-30T11:09:15.415Z,412
2019-01-30T11:10:22.345Z,412
2019-01-30T11:11:29.556Z,412
2019-01-30T11:12:36.770Z,412
2019-01-30T11:13:43.521Z,412
2019-01-30T11:14:50.732Z,413
2019-01-30T11:15:57.414Z,413
2019-01-30T11:17:04.623Z,412
2019-01-30T11:18:11.823Z,413
2019-01-30T11:19:19.028Z,411
2019-01-30T11:20:26.253Z,413
2019-01-30T11:21:33.458Z,412
2019-01-30T11:22:40.675Z,411
2019-01-30T11:23:47.885Z,412
2019-01-30T11:24:56.783Z,411
2019-01-30T11:26:03.725Z,411
2019-01-30T11:27:10.947Z,411
2019-01-30T11:28:18.153Z,410
2019-01-30T11:29:25.376Z,411
2019-01-30T11:30:32.050Z,410
2019-01-30T11:31:41.817Z,409
2019-01-30T11:32:48.473Z,408
2019-01-30T11:33:55.703Z,408
2019-01-30T11:35:02.657Z,408
2019-01-30T11:36:09.858Z,407
2019-01-30T11:37:17.070Z,407
2019-01-30T11:38:24.015Z,405
2019-01-30T11:39:30.969Z,407
2019-01-30T11:40:38.185Z,406
2019-01-30T11:41:45.151Z,404
2019-01-30T11:42:52.382Z,402
2019-01-30T11:43:59.593Z,400
2019-01-30T11:45:06.794Z,399
2019-01-30T11:46:13.780Z,399
2019-01-30T11:47:20.988Z,397
2019-01-30T11:48:27.927Z,396
2019-01-30T11:49:35.253Z,396
2019-01-30T11:50:42.477Z,391
2019-01-30T11:51:49.696Z,386
2019-01-30T11:52:56.907Z,386
2019-01-30T11:54:04.135Z,387
2019-01-30T11:55:11.569Z,386
2019-01-30T11:56:18.771Z,387
2019-01-30T11:57:25.702Z,389
2019-01-30T11:58:32.920Z,387
2019-01-30T11:59:40.131Z,387
2019-01-30T12:00:47.361Z,387
2019-01-30T12:01:54.584Z,392
2019-01-30T12:03:01.808Z,396
2019-01-30T12:04:18.801Z,401
2019-01-30T12:05:26.020Z,406
2019-01-30T12:06:33.269Z,407
2019-01-30T12:07:40.212Z,408
2019-01-30T12:08:47.435Z,408
2019-01-30T12:09:56.982Z,408
2019-01-30T12:11:04.199Z,408
2019-01-30T12:12:11.409Z,409
2019-01-30T12:13:18.617Z,409
2019-01-30T12:14:25.815Z,410
2019-01-30T12:15:33.049Z,409
2019-01-30T12:16:40.250Z,408
2019-01-30T12:17:47.450Z,407
2019-01-30T12:18:54.677Z,407
2019-01-30T12:20:01.867Z,406
2019-01-30T12:21:09.086Z,406
2019-01-30T12:22:16.301Z,405
2019-01-30T12:23:23.515Z,405
2019-01-30T12:24:30.720Z,405
2019-01-30T12:25:37.935Z,406
2019-01-30T12:26:45.132Z,407
2019-01-30T12:27:52.167Z,406
2019-01-30T12:28:59.370Z,405
2019-01-30T12:30:06.575Z,406
2019-01-30T12:31:13.805Z,406
2019-01-30T12:32:21.028Z,406
2019-01-30T12:33:28.234Z,408
2019-01-30T12:34:35.431Z,407
2019-01-30T12:35:42.346Z,407
2019-01-30T12:36:49.283Z,408
2019-01-30T12:37:56.485Z,407
2019-01-30T12:39:03.697Z,406
2019-01-30T12:40:11.718Z,407
2019-01-30T12:41:18.920Z,408
2019-01-30T12:42:26.125Z,407
2019-01-30T12:43:32.776Z,407
2019-01-30T12:44:39.701Z,407
2019-01-30T12:45:46.905Z,408
2019-01-30T12:46:53.837Z,408
2019-01-30T12:48:01.054Z,408
2019-01-30T12:49:08.251Z,408
2019-01-30T12:50:15.462Z,409
2019-01-30T12:51:22.672Z,410
2019-01-30T12:52:30.068Z,410
2019-01-30T12:53:36.987Z,410
2019-01-30T12:54:44.192Z,410
2019-01-30T12:55:51.394Z,410
2019-01-30T12:56:58.597Z,410
2019-01-30T12:58:05.803Z,409
2019-01-30T12:59:13.018Z,409
2019-01-30T13:00:20.222Z,410
2019-01-30T13:01:27.421Z,409
2019-01-30T13:02:34.346Z,409
2019-01-30T13:03:41.574Z,410
2019-01-30T13:04:48.802Z,409
2019-01-30T13:05:56.021Z,410
2019-01-30T13:07:03.216Z,410
2019-01-30T13:08:10.426Z,410
2019-01-30T13:09:17.074Z,410
2019-01-30T13:10:24.012Z,409
2019-01-30T13:11:31.210Z,409
2019-01-30T13:12:38.140Z,410
2019-01-30T13:13:45.343Z,410
2019-01-30T13:14:52.559Z,409
2019-01-30T13:15:59.767Z,409
2019-01-30T13:17:06.982Z,409
2019-01-30T13:18:19.317Z,410
2019-01-30T13:19:26.244Z,410
2019-01-30T13:20:33.446Z,410
2019-01-30T13:21:40.651Z,410
2019-01-30T13:22:47.297Z,411
2019-01-30T13:23:54.490Z,411
2019-01-30T13:25:01.709Z,411
2019-01-30T13:26:08.912Z,411
2019-01-30T13:27:15.842Z,410
2019-01-30T13:28:22.774Z,411
2019-01-30T13:29:29.973Z,410
2019-01-30T13:30:37.180Z,411
2019-01-30T13:31:44.396Z,410
2019-01-30T13:32:51.602Z,411
2019-01-30T13:33:58.536Z,411
2019-01-30T13:35:05.739Z,411
2019-01-30T13:36:12.950Z,410
2019-01-30T13:37:20.158Z,411
2019-01-30T13:38:27.360Z,411
2019-01-30T13:39:34.576Z,410
2019-01-30T13:40:41.875Z,410
2019-01-30T13:41:48.805Z,411
2019-01-30T13:42:55.729Z,410
2019-01-30T13:44:02.661Z,411
2019-01-30T13:45:09.582Z,411
2019-01-30T13:46:16.519Z,411
2019-01-30T13:47:23.727Z,411
2019-01-30T13:48:32.622Z,411
2019-01-30T13:49:39.823Z,410
2019-01-30T13:50:47.844Z,411
2019-01-30T13:51:55.079Z,410
2019-01-30T13:53:02.290Z,412
2019-01-30T13:54:09.243Z,411
2019-01-30T13:55:16.563Z,411
2019-01-30T13:56:23.763Z,412
2019-01-30T13:57:30.993Z,411
2019-01-30T13:58:38.223Z,410
2019-01-30T13:59:45.249Z,411
2019-01-30T14:00:52.491Z,411
2019-01-30T14:01:59.721Z,411
2019-01-30T14:03:06.925Z,411
2019-01-30T14:04:14.167Z,412
2019-01-30T14:05:21.379Z,411
2019-01-30T14:06:28.601Z,411
2019-01-30T14:07:35.824Z,410
2019-01-30T14:08:43.044Z,412
2019-01-30T14:09:50.264Z,410
2019-01-30T14:10:57.496Z,410
2019-01-30T14:12:04.733Z,411
2019-01-30T14:13:11.684Z,409
2019-01-30T14:14:18.886Z,410
2019-01-30T14:15:26.159Z,409
2019-01-30T14:16:33.421Z,410
2019-01-30T14:17:40.670Z,409
2019-01-30T14:18:47.585Z,409
2019-01-30T14:19:54.813Z,410
2019-01-30T14:21:01.752Z,409
2019-01-30T14:22:08.981Z,408
2019-01-30T14:23:15.950Z,409
2019-01-30T14:24:23.196Z,409
2019-01-30T14:25:30.389Z,409
2019-01-30T14:26:37.369Z,410
2019-01-30T14:27:44.641Z,410
2019-01-30T14:28:51.890Z,410
2019-01-30T14:29:59.654Z,409
2019-01-30T14:31:07.033Z,411
2019-01-30T14:32:16.058Z,410
2019-01-30T14:33:23.293Z,412
2019-01-30T14:34:30.494Z,411
2019-01-30T14:35:37.453Z,411
2019-01-30T14:36:44.663Z,411
2019-01-30T14:37:51.903Z,411
2019-01-30T14:38:58.846Z,419
2019-01-30T14:40:06.094Z,418
2019-01-30T14:41:13.300Z,414
2019-01-30T14:42:20.579Z,413
2019-01-30T14:43:27.513Z,413
2019-01-30T14:44:34.751Z,412
2019-01-30T14:45:42.008Z,413
2019-01-30T14:46:48.929Z,412
2019-01-30T14:47:56.179Z,411
2019-01-30T14:49:03.409Z,412
2019-01-30T14:50:10.359Z,412
2019-01-30T14:51:17.588Z,411
2019-01-30T14:52:24.873Z,411
2019-01-30T14:53:32.086Z,411
2019-01-30T14:54:39.330Z,411
2019-01-30T14:55:46.499Z,412
2019-01-30T14:56:53.726Z,411
2019-01-30T14:58:00.944Z,410
2019-01-30T14:59:08.186Z,411
2019-01-30T15:00:15.513Z,411
2019-01-30T15:01:22.811Z,411
2019-01-30T15:02:30.060Z,412
2019-01-30T15:03:37.049Z,411
2019-01-30T15:04:44.309Z,411
2019-01-30T15:05:51.521Z,411
2019-01-30T15:06:58.716Z,410
2019-01-30T15:08:05.693Z,411
2019-01-30T15:09:12.959Z,411
2019-01-30T15:10:20.345Z,410
2019-01-30T15:11:27.302Z,411
2019-01-30T15:12:34.263Z,410
2019-01-30T15:13:41.529Z,412
2019-01-30T15:14:48.458Z,411
2019-01-30T15:15:55.734Z,410
2019-01-30T15:17:02.930Z,412
2019-01-30T15:18:10.164Z,412
2019-01-30T15:19:16.831Z,412
2019-01-30T15:20:24.072Z,411
2019-01-30T15:21:31.213Z,411
2019-01-30T15:22:38.427Z,412
2019-01-30T15:23:45.630Z,412
2019-01-30T15:24:52.556Z,412
2019-01-30T15:25:59.762Z,411